Time;durP1;ratioP1;P1;durP2;ratioP2;P2;SDS_P1;SDS_P2;PMS_P1;PMS_P2;Temp;Humidity;BMP_temperature;BMP_pressure;BME280_temperature;BME280_humidity;BME280_pressure;Samples;Min_cycle;Max_cycle;Signal;HPM_P1;HPM_P2
2022/05/16 00:00:38;;;;;;;6.30;2.90;;;15.00;99.90;;;;;;5094666;28;20468;-68
2022/05/16 00:03:08;;;;;;;6.73;3.20;;;14.90;99.90;;;;;;5094599;28;20453;-68
2022/05/16 00:05:35;;;;;;;9.37;3.50;;;14.90;99.90;;;;;;5093970;28;20478;-67
2022/05/16 00:08:02;;;;;;;4.87;3.07;;;14.90;99.90;;;;;;5094292;28;20538;-68
2022/05/16 00:10:30;;;;;;;10.70;3.37;;;14.90;99.90;;;;;;5094396;28;20457;-68
2022/05/16 00:12:56;;;;;;;6.13;3.37;;;14.80;99.90;;;;;;5094299;28;20787;-68
2022/05/16 00:15:25;;;;;;;6.07;2.77;;;14.80;99.90;;;;;;5094194;28;20445;-69
2022/05/16 00:17:52;;;;;;;5.60;3.33;;;14.80;99.90;;;;;;5094281;28;20472;-70
2022/05/16 00:20:19;;;;;;;7.30;3.67;;;14.80;99.90;;;;;;5094333;28;20465;-68
2022/05/16 00:22:45;;;;;;;6.50;3.20;;;14.70;99.90;;;;;;5094421;28;20766;-68
2022/05/16 00:25:15;;;;;;;6.30;2.93;;;14.70;99.90;;;;;;5094552;28;20550;-68
2022/05/16 00:27:43;;;;;;;5.77;3.10;;;14.70;99.90;;;;;;5094237;28;20461;-68
2022/05/16 00:30:13;;;;;;;9.20;3.30;;;14.70;99.90;;;;;;5094284;28;20457;-68
2022/05/16 00:32:41;;;;;;;8.00;3.03;;;14.60;99.90;;;;;;5094387;28;20747;-68
2022/05/16 00:35:10;;;;;;;6.60;3.97;;;14.60;99.90;;;;;;5094228;28;20450;-68
2022/05/16 00:37:36;;;;;;;6.40;2.97;;;14.60;99.90;;;;;;5094291;28;20756;-68
2022/05/16 00:40:04;;;;;;;6.37;2.50;;;14.60;99.90;;;;;;5094187;28;20464;-68
2022/05/16 00:42:31;;;;;;;4.20;3.20;;;14.60;99.90;;;;;;5093713;28;20929;-69
2022/05/16 00:44:59;;;;;;;6.23;3.17;;;14.60;99.90;;;;;;5093697;28;20486;-69
2022/05/16 00:47:26;;;;;;;5.17;2.97;;;14.60;99.90;;;;;;5094117;28;20457;-69
2022/05/16 00:49:54;;;;;;;5.27;2.67;;;14.60;99.90;;;;;;5093886;28;20518;-68
2022/05/16 00:52:25;;;;;;;3.37;2.63;;;14.50;99.90;;;;;;5094173;28;20449;-68
2022/05/16 00:54:56;;;;;;;7.50;2.43;;;14.50;99.90;;;;;;5097760;28;20437;-68
2022/05/16 00:57:26;;;;;;;4.57;2.70;;;14.50;99.90;;;;;;5097882;28;20463;-68
2022/05/16 00:59:58;;;;;;;6.50;2.93;;;14.50;99.90;;;;;;5097815;28;20502;-68
2022/05/16 01:05:24;;;;;;;3.30;2.57;;;14.40;99.90;;;;;;5055288;28;20493;-68
2022/05/16 01:07:50;;;;;;;8.30;3.33;;;14.40;99.90;;;;;;5087359;28;20931;-68
2022/05/16 01:10:20;;;;;;;4.60;2.60;;;14.40;99.90;;;;;;5097496;28;20453;-68
2022/05/16 01:12:49;;;;;;;4.77;2.90;;;14.40;99.90;;;;;;5097399;28;20469;-68
2022/05/16 01:15:26;;;;;;;4.63;2.80;;;14.40;99.90;;;;;;5097561;28;20457;-68
2022/05/16 01:17:54;;;;;;;4.40;2.80;;;14.40;99.90;;;;;;5097503;28;20823;-68
2022/05/16 01:20:21;;;;;;;6.47;2.70;;;14.40;99.90;;;;;;5096957;28;20827;-68
2022/05/16 01:22:52;;;;;;;4.33;2.83;;;14.40;99.90;;;;;;5097203;28;21022;-68
2022/05/16 01:25:23;;;;;;;6.57;3.07;;;14.40;99.90;;;;;;5097386;28;20437;-68
2022/05/16 01:27:52;;;;;;;4.07;2.40;;;14.30;99.90;;;;;;5097471;28;20461;-68
2022/05/16 01:30:24;;;;;;;4.23;2.53;;;14.30;99.90;;;;;;5097391;28;20552;-68
2022/05/16 01:32:51;;;;;;;5.93;3.00;;;14.40;99.90;;;;;;5097358;28;20446;-68
2022/05/16 01:35:20;;;;;;;5.37;2.60;;;14.30;99.90;;;;;;5096979;28;20959;-68
2022/05/16 01:40:32;;;;;;;3.20;2.23;;;14.30;99.90;;;;;;5096830;28;20861;-68
2022/05/16 01:42:59;;;;;;;3.83;2.07;;;14.30;99.90;;;;;;5096932;28;20845;-68
2022/05/16 01:45:26;;;;;;;4.50;2.83;;;14.20;99.90;;;;;;5096730;28;20511;-68
2022/05/16 01:47:52;;;;;;;4.97;2.27;;;14.20;99.90;;;;;;5096744;28;20514;-68
2022/05/16 01:50:19;;;;;;;8.97;3.47;;;14.20;99.90;;;;;;5096914;28;20453;-69
2022/05/16 01:52:45;;;;;;;6.30;2.73;;;14.20;99.90;;;;;;5096590;28;20472;-69
2022/05/16 01:55:12;;;;;;;4.90;2.80;;;14.20;99.90;;;;;;5096725;28;20783;-69
2022/05/16 01:57:41;;;;;;;5.73;2.47;;;14.20;99.90;;;;;;5096761;28;20495;-69
2022/05/16 02:00:12;;;;;;;4.10;2.43;;;14.10;99.90;;;;;;5096409;28;20461;-69
2022/05/16 02:02:41;;;;;;;7.93;2.60;;;14.20;99.90;;;;;;5096638;28;20445;-69
2022/05/16 02:05:08;;;;;;;6.93;3.20;;;14.20;99.90;;;;;;5095770;28;20457;-69
2022/05/16 02:07:35;;;;;;;8.07;3.30;;;14.10;99.90;;;;;;5096024;28;20492;-69
2022/05/16 02:10:02;;;;;;;9.60;3.40;;;14.10;99.90;;;;;;5096623;28;20566;-69
2022/05/16 02:12:29;;;;;;;6.13;3.30;;;14.10;99.90;;;;;;5096381;28;20461;-69
2022/05/16 02:14:57;;;;;;;9.50;3.77;;;14.10;99.90;;;;;;5096439;28;20457;-69
2022/05/16 02:17:23;;;;;;;6.70;3.77;;;14.10;99.90;;;;;;5096450;28;20454;-69
2022/05/16 02:19:50;;;;;;;5.03;2.80;;;14.00;99.90;;;;;;5096429;28;20464;-68
2022/05/16 02:25:01;;;;;;;3.93;2.53;;;14.00;99.90;;;;;;5096445;28;20471;-68
2022/05/16 02:27:28;;;;;;;5.40;2.83;;;14.00;99.90;;;;;;5096109;28;20481;-69
2022/05/16 02:29:55;;;;;;;5.50;2.90;;;14.00;99.90;;;;;;5096427;28;20453;-68
2022/05/16 02:32:23;;;;;;;6.70;3.83;;;14.00;99.90;;;;;;5096126;28;20461;-68
2022/05/16 02:34:50;;;;;;;6.30;3.13;;;14.00;99.90;;;;;;5096185;28;20457;-68
2022/05/16 02:37:17;;;;;;;8.87;3.50;;;14.00;99.90;;;;;;5095898;28;20791;-68
2022/05/16 02:39:44;;;;;;;9.67;4.30;;;13.90;99.90;;;;;;5095749;28;20458;-68
2022/05/16 02:42:11;;;;;;;5.27;3.50;;;13.90;99.90;;;;;;5096250;28;20495;-68
2022/05/16 02:44:39;;;;;;;7.67;3.80;;;13.90;99.90;;;;;;5096443;28;20792;-68
2022/05/16 02:47:06;;;;;;;5.93;4.43;;;13.90;99.90;;;;;;5095312;28;20560;-68
2022/05/16 02:49:34;;;;;;;9.73;4.33;;;13.90;99.90;;;;;;5095868;28;20536;-68
2022/05/16 02:52:00;;;;;;;5.23;3.70;;;13.80;99.90;;;;;;5095559;28;20453;-68
2022/05/16 02:54:27;;;;;;;8.87;3.40;;;13.80;99.90;;;;;;5095562;28;20454;-68
2022/05/16 02:56:54;;;;;;;5.60;3.00;;;13.80;99.90;;;;;;5095931;28;20461;-68
2022/05/16 02:59:23;;;;;;;7.10;3.00;;;13.80;99.90;;;;;;5095794;28;20461;-68
2022/05/16 03:01:49;;;;;;;7.53;3.40;;;13.80;99.90;;;;;;5095702;28;20530;-69
2022/05/16 03:04:16;;;;;;;6.70;3.93;;;13.80;99.90;;;;;;5095687;28;20518;-68
2022/05/16 03:06:45;;;;;;;5.73;2.50;;;13.70;99.90;;;;;;5094854;28;20933;-68
2022/05/16 03:09:12;;;;;;;4.17;3.13;;;13.70;99.90;;;;;;5095319;28;20453;-69
2022/05/16 03:11:38;;;;;;;4.70;2.90;;;13.70;99.90;;;;;;5095532;28;20536;-68
2022/05/16 03:14:05;;;;;;;5.60;2.70;;;13.70;99.90;;;;;;5095942;28;20453;-69
2022/05/16 03:16:33;;;;;;;9.47;5.13;;;13.70;99.90;;;;;;5096018;28;20502;-69
2022/05/16 03:19:00;;;;;;;7.20;5.60;;;13.70;99.90;;;;;;5099486;28;20453;-69
2022/05/16 03:21:26;;;;;;;8.93;4.83;;;13.70;99.90;;;;;;5098218;28;20472;-68
2022/05/16 03:23:54;;;;;;;8.07;5.60;;;13.70;99.90;;;;;;5095082;28;20922;-68
2022/05/16 03:26:21;;;;;;;7.47;4.60;;;13.70;99.90;;;;;;5095301;28;20805;-68
2022/05/16 03:28:48;;;;;;;9.80;5.47;;;13.70;99.90;;;;;;5095282;28;20577;-68
2022/05/16 03:31:14;;;;;;;10.67;5.90;;;13.70;99.90;;;;;;5094996;28;20464;-68
2022/05/16 03:33:41;;;;;;;11.33;8.77;;;13.80;99.90;;;;;;5094896;28;20535;-68
2022/05/16 03:36:08;;;;;;;11.40;7.10;;;13.80;99.90;;;;;;5094699;28;20457;-68
2022/05/16 03:41:22;;;;;;;8.30;5.03;;;13.80;99.90;;;;;;5094787;28;20432;-69
2022/05/16 03:43:49;;;;;;;8.70;5.53;;;13.80;99.90;;;;;;5094494;28;20514;-69
2022/05/16 03:46:16;;;;;;;14.73;8.00;;;13.80;99.90;;;;;;5094696;28;20487;-69
2022/05/16 03:48:43;;;;;;;10.47;5.80;;;13.80;99.90;;;;;;5094803;28;20828;-69
2022/05/16 03:51:12;;;;;;;6.83;5.10;;;13.80;99.90;;;;;;5094541;28;20465;-69
2022/05/16 03:53:46;;;;;;;10.70;5.70;;;13.80;99.90;;;;;;5094659;28;20457;-69
2022/05/16 03:56:13;;;;;;;9.60;7.23;;;13.90;99.90;;;;;;5094725;28;20434;-69
2022/05/16 03:58:41;;;;;;;7.07;4.47;;;13.90;99.90;;;;;;5094594;28;20548;-69
2022/05/16 04:01:08;;;;;;;6.60;4.67;;;13.90;99.90;;;;;;5094187;28;21039;-69
2022/05/16 04:03:35;;;;;;;10.97;5.60;;;13.90;99.90;;;;;;5094694;28;20453;-69
2022/05/16 04:06:02;;;;;;;8.30;4.47;;;14.00;99.90;;;;;;5094302;28;20530;-69
2022/05/16 04:08:29;;;;;;;7.00;3.80;;;14.00;99.90;;;;;;5094200;28;20542;-69
2022/05/16 04:10:56;;;;;;;4.93;3.40;;;14.00;99.90;;;;;;5094355;28;20449;-69
2022/05/16 04:13:22;;;;;;;5.87;3.90;;;14.10;99.90;;;;;;5094111;28;20944;-69
2022/05/16 04:15:51;;;;;;;9.10;4.47;;;14.10;99.90;;;;;;5094448;28;20453;-69
2022/05/16 04:18:19;;;;;;;5.97;4.20;;;14.10;99.90;;;;;;5094433;28;20581;-69
2022/05/16 04:20:46;;;;;;;7.50;6.00;;;14.20;99.90;;;;;;5094336;28;20457;-69
2022/05/16 04:23:13;;;;;;;7.67;4.03;;;14.20;99.90;;;;;;5093969;28;20955;-68
2022/05/16 04:25:40;;;;;;;4.37;2.47;;;14.20;99.90;;;;;;5094338;28;20517;-68
2022/05/16 04:28:07;;;;;;;6.83;2.93;;;14.20;99.90;;;;;;5097231;28;20941;-69
2022/05/16 04:30:35;;;;;;;5.37;2.83;;;14.20;99.90;;;;;;5098409;28;20454;-69
2022/05/16 04:33:03;;;;;;;11.80;6.83;;;14.20;99.90;;;;;;5098034;28;20969;-69
2022/05/16 04:35:30;;;;;;;10.37;5.70;;;14.30;99.90;;;;;;5098333;28;20464;-69
2022/05/16 04:37:57;;;;;;;14.63;8.27;;;14.30;99.90;;;;;;5097882;28;20449;-69
2022/05/16 04:40:24;;;;;;;9.53;6.07;;;14.40;99.90;;;;;;5098197;28;20467;-69
2022/05/16 04:42:50;;;;;;;9.00;3.90;;;14.40;99.90;;;;;;5097753;28;20518;-69
2022/05/16 04:45:19;;;;;;;5.57;3.50;;;14.50;99.90;;;;;;5098053;28;20453;-70
2022/05/16 04:47:48;;;;;;;6.07;2.47;;;14.60;99.90;;;;;;5097676;28;20614;-69
2022/05/16 04:50:18;;;;;;;21.23;13.10;;;14.70;99.90;;;;;;5097487;28;20463;-69
2022/05/16 04:52:46;;;;;;;11.43;7.10;;;14.70;99.90;;;;;;5097716;28;20460;-69
2022/05/16 04:55:13;;;;;;;4.43;2.67;;;14.80;99.90;;;;;;5097831;28;20555;-70
2022/05/16 04:57:40;;;;;;;5.03;3.03;;;14.80;99.90;;;;;;5097726;28;20449;-70
2022/05/16 05:00:10;;;;;;;4.03;2.03;;;14.80;99.90;;;;;;5097489;28;20465;-69
2022/05/16 05:02:37;;;;;;;7.27;2.90;;;14.90;99.90;;;;;;5097396;28;20453;-68
2022/05/16 05:05:04;;;;;;;4.23;2.87;;;14.90;99.90;;;;;;5097102;28;20461;-69
2022/05/16 05:07:32;;;;;;;4.23;2.30;;;14.90;99.90;;;;;;5097092;28;20489;-69
2022/05/16 05:15:27;;;;;;;6.93;2.63;;;15.00;99.90;;;;;;5097580;28;20474;-69
2022/05/16 05:17:53;;;;;;;8.73;4.93;;;15.10;99.90;;;;;;5097720;28;20468;-70
2022/05/16 05:20:21;;;;;;;4.60;3.13;;;15.10;99.90;;;;;;5097433;28;20450;-69
2022/05/16 05:22:49;;;;;;;4.67;3.00;;;15.20;99.90;;;;;;5097628;28;20453;-69
2022/05/16 05:25:20;;;;;;;8.40;4.13;;;15.20;99.90;;;;;;5097381;28;20786;-69
2022/05/16 05:27:49;;;;;;;6.33;4.13;;;15.20;99.90;;;;;;5096970;28;20968;-68
2022/05/16 05:30:23;;;;;;;7.17;3.17;;;15.30;99.90;;;;;;5097406;28;20548;-70
2022/05/16 05:32:50;;;;;;;6.63;3.00;;;15.30;99.90;;;;;;5097221;28;20558;-68
2022/05/16 05:35:18;;;;;;;7.33;2.43;;;15.40;99.90;;;;;;5097138;28;20522;-68
2022/05/16 05:37:45;;;;;;;4.23;2.60;;;15.40;99.90;;;;;;5097112;28;20514;-70
2022/05/16 05:40:14;;;;;;;11.53;10.20;;;15.50;99.90;;;;;;5096298;28;20464;-70
2022/05/16 05:42:41;;;;;;;5.83;3.03;;;15.60;99.90;;;;;;5096858;28;20453;-69
2022/05/16 05:45:10;;;;;;;6.97;3.53;;;15.60;99.90;;;;;;5096829;28;20461;-70
2022/05/16 05:47:37;;;;;;;6.60;3.10;;;15.70;99.90;;;;;;5096762;28;20477;-70
2022/05/16 05:50:05;;;;;;;7.60;2.87;;;15.70;99.90;;;;;;5096315;28;20465;-70
2022/05/16 05:52:32;;;;;;;11.03;3.20;;;15.70;99.90;;;;;;5096816;28;20510;-70
2022/05/16 05:54:59;;;;;;;8.23;2.77;;;15.90;99.90;;;;;;5096814;28;20470;-70
2022/05/16 05:57:27;;;;;;;6.27;3.00;;;15.90;99.90;;;;;;5096434;28;20453;-70
2022/05/16 05:59:55;;;;;;;3.17;2.60;;;16.00;99.90;;;;;;5096933;28;20461;-68
2022/05/16 06:02:23;;;;;;;5.83;3.90;;;16.10;99.90;;;;;;5096937;28;20461;-69
2022/05/16 06:04:50;;;;;;;7.70;3.30;;;16.10;99.90;;;;;;5096648;28;20788;-69
2022/05/16 06:07:16;;;;;;;4.80;2.87;;;16.20;99.90;;;;;;5095799;28;20571;-69
2022/05/16 06:09:43;;;;;;;4.50;3.37;;;16.30;99.90;;;;;;5096456;28;20500;-69
2022/05/16 06:12:11;;;;;;;6.30;2.80;;;16.30;99.90;;;;;;5096360;28;20457;-69
2022/05/16 06:14:43;;;;;;;5.77;2.80;;;16.30;99.90;;;;;;5096122;28;20510;-68
2022/05/16 06:17:10;;;;;;;8.07;5.90;;;16.30;99.90;;;;;;5096052;28;20473;-69
2022/05/16 06:19:37;;;;;;;4.73;2.83;;;16.30;99.90;;;;;;5096171;28;20492;-69
2022/05/16 06:22:04;;;;;;;2.77;2.27;;;16.30;99.90;;;;;;5095826;28;20461;-69
2022/05/16 06:27:15;;;;;;;6.87;3.00;;;16.50;99.90;;;;;;5095899;28;20460;-69
2022/05/16 06:29:43;;;;;;;7.23;3.27;;;16.50;99.90;;;;;;5096165;28;20464;-69
2022/05/16 06:32:09;;;;;;;4.80;3.10;;;16.50;99.90;;;;;;5096238;28;20554;-69
2022/05/16 06:34:36;;;;;;;6.97;3.10;;;16.60;99.90;;;;;;5095842;28;20453;-69
2022/05/16 06:37:03;;;;;;;3.00;2.10;;;16.60;99.90;;;;;;5096512;28;20461;-68
2022/05/16 06:39:30;;;;;;;5.40;2.77;;;16.70;99.90;;;;;;5096702;28;20487;-71
2022/05/16 06:41:56;;;;;;;4.20;2.20;;;16.80;99.90;;;;;;5096316;28;20831;-69
2022/05/16 06:44:23;;;;;;;5.30;2.40;;;16.90;99.90;;;;;;5095435;28;20457;-69
2022/05/16 06:46:51;;;;;;;4.50;2.47;;;17.00;99.90;;;;;;5095573;28;20460;-69
2022/05/16 06:49:19;;;;;;;6.10;2.20;;;17.00;99.90;;;;;;5095440;28;20496;-69
2022/05/16 06:51:45;;;;;;;4.37;2.57;;;17.10;99.90;;;;;;5094313;28;20870;-69
2022/05/16 06:54:12;;;;;;;6.27;2.60;;;17.20;99.90;;;;;;5094992;28;20461;-70
2022/05/16 06:56:39;;;;;;;5.73;2.57;;;17.30;99.90;;;;;;5095294;28;20529;-69
2022/05/16 06:59:05;;;;;;;5.70;2.77;;;17.40;99.90;;;;;;5096638;28;20449;-70
2022/05/16 07:01:32;;;;;;;4.67;2.70;;;17.50;99.90;;;;;;5095544;28;20815;-69
2022/05/16 07:04:00;;;;;;;4.30;2.83;;;17.70;99.90;;;;;;5095289;28;20468;-69
2022/05/16 07:06:27;;;;;;;3.17;2.20;;;17.70;99.90;;;;;;5095027;28;20518;-70
2022/05/16 07:08:54;;;;;;;6.80;2.30;;;17.80;99.90;;;;;;5094721;28;20926;-69
2022/05/16 07:11:21;;;;;;;3.07;2.20;;;17.90;99.90;;;;;;5094604;28;20540;-70
2022/05/16 07:13:47;;;;;;;6.03;2.80;;;18.00;99.90;;;;;;5094967;28;20802;-71
2022/05/16 07:16:14;;;;;;;8.27;2.40;;;18.00;99.90;;;;;;5094912;28;20468;-69
2022/05/16 07:18:41;;;;;;;4.70;2.23;;;18.10;99.90;;;;;;5094938;28;20461;-69
2022/05/16 07:21:09;;;;;;;3.57;1.73;;;18.10;99.90;;;;;;5094726;28;20483;-69
2022/05/16 07:23:35;;;;;;;3.77;2.60;;;18.20;99.90;;;;;;5095119;28;20457;-69
2022/05/16 07:28:46;;;;;;;5.30;2.30;;;18.40;99.90;;;;;;5094517;28;20480;-69
2022/05/16 07:31:13;;;;;;;3.10;1.80;;;18.50;99.90;;;;;;5095401;28;20457;-70
2022/05/16 07:33:40;;;;;;;2.43;1.87;;;18.50;99.90;;;;;;5095489;28;20462;-70
2022/05/16 07:36:07;;;;;;;5.87;3.17;;;18.60;99.90;;;;;;5095078;28;20489;-69
2022/05/16 07:38:35;;;;;;;5.90;2.33;;;18.70;99.90;;;;;;5095211;28;20453;-70
2022/05/16 07:41:02;;;;;;;10.17;3.50;;;18.70;99.90;;;;;;5094785;28;20453;-69
2022/05/16 07:43:30;;;;;;;9.07;2.80;;;18.80;99.90;;;;;;5094597;28;20519;-69
2022/05/16 07:45:57;;;;;;;6.83;2.33;;;18.90;99.90;;;;;;5094723;28;20461;-69
2022/05/16 07:48:24;;;;;;;4.80;2.60;;;19.00;99.90;;;;;;5094171;28;20484;-70
2022/05/16 07:50:51;;;;;;;5.67;2.40;;;19.00;99.90;;;;;;5094595;28;20461;-70
2022/05/16 07:53:18;;;;;;;4.50;2.53;;;19.10;99.90;;;;;;5094489;28;20469;-70
2022/05/16 07:55:50;;;;;;;5.83;2.67;;;19.20;99.90;;;;;;5094516;28;20492;-70
2022/05/16 07:58:17;;;;;;;2.77;2.10;;;19.40;99.90;;;;;;5094398;28;20495;-70
2022/05/16 08:00:44;;;;;;;5.70;3.30;;;19.50;99.90;;;;;;5094574;28;20461;-69
2022/05/16 08:03:11;;;;;;;3.50;2.23;;;19.50;99.90;;;;;;5094009;28;20877;-69
2022/05/16 08:05:39;;;;;;;4.13;2.17;;;19.70;99.90;;;;;;5094261;28;20540;-69
2022/05/16 08:10:51;;;;;;;3.20;2.10;;;19.80;99.90;;;;;;5094765;28;20425;-69
2022/05/16 08:13:18;;;;;;;6.00;3.03;;;19.80;99.90;;;;;;5094327;28;20547;-69
2022/05/16 08:15:45;;;;;;;6.90;4.40;;;20.00;99.90;;;;;;5093786;28;20522;-69
2022/05/16 08:18:13;;;;;;;4.00;2.10;;;20.00;99.90;;;;;;5093830;28;20921;-69
2022/05/16 08:20:42;;;;;;;6.83;2.17;;;20.10;99.90;;;;;;5094167;28;20544;-69
2022/05/16 08:23:10;;;;;;;5.00;2.33;;;20.20;99.90;;;;;;5094306;28;20522;-69
2022/05/16 08:25:36;;;;;;;4.67;2.23;;;20.30;99.90;;;;;;5094221;28;20776;-70
2022/05/16 08:28:05;;;;;;;4.20;2.23;;;20.30;99.90;;;;;;5093933;28;20477;-70
2022/05/16 08:30:32;;;;;;;3.03;2.17;;;20.30;99.90;;;;;;5094021;28;20465;-70
2022/05/16 08:33:01;;;;;;;4.00;2.37;;;20.30;99.90;;;;;;5094285;28;20862;-70
2022/05/16 08:35:28;;;;;;;5.67;2.80;;;20.40;99.90;;;;;;5093778;28;20938;-70
2022/05/16 08:40:50;;;;;;;5.80;2.30;;;20.70;99.90;;;;;;5093874;28;20924;-70
2022/05/16 08:43:29;;;;;;;2.97;2.07;;;20.80;99.90;;;;;;5094020;28;20954;-70
2022/05/16 08:46:03;;;;;;;3.03;2.00;;;21.00;99.90;;;;;;5094036;28;20512;-70
2022/05/16 08:48:34;;;;;;;5.30;1.90;;;21.00;99.90;;;;;;5093904;28;20560;-70
2022/05/16 08:51:05;;;;;;;4.77;2.00;;;20.90;99.90;;;;;;5093779;28;20894;-70
2022/05/16 08:53:39;;;;;;;1.83;1.60;;;21.00;99.90;;;;;;5094087;28;20449;-70
2022/05/16 08:56:10;;;;;;;4.90;1.80;;;21.00;99.90;;;;;;5093545;28;20847;-70
2022/05/16 08:58:42;;;;;;;6.33;2.80;;;21.10;99.90;;;;;;5093687;28;20442;-70
2022/05/16 09:01:12;;;;;;;3.20;1.93;;;21.20;99.90;;;;;;5093928;28;20441;-70
2022/05/16 09:03:43;;;;;;;3.57;2.07;;;21.30;99.90;;;;;;5094454;28;20534;-70
2022/05/16 09:06:16;;;;;;;5.50;2.13;;;21.40;99.90;;;;;;5094004;28;20536;-70
2022/05/16 09:08:49;;;;;;;7.03;4.17;;;21.60;99.90;;;;;;5093735;28;20598;-70
2022/05/16 09:11:20;;;;;;;3.93;2.40;;;21.60;99.90;;;;;;5093735;28;20441;-69
2022/05/16 09:13:52;;;;;;;4.20;2.13;;;21.70;99.90;;;;;;5094771;28;20448;-70
2022/05/16 09:16:37;;;;;;;12.97;9.63;;;21.90;99.90;;;;;;5098028;28;20445;-69
2022/05/16 09:19:19;;;;;;;7.90;4.40;;;21.90;99.90;;;;;;5097422;28;20465;-69
2022/05/16 09:21:52;;;;;;;7.13;2.33;;;22.00;99.90;;;;;;5096811;28;20440;-69
2022/05/16 09:24:25;;;;;;;5.17;2.50;;;22.00;99.90;;;;;;5097074;28;20445;-70
2022/05/16 09:27:00;;;;;;;8.43;2.17;;;22.10;99.90;;;;;;5096880;28;20452;-70
2022/05/16 09:29:31;;;;;;;2.00;1.50;;;22.20;99.90;;;;;;5096785;28;20460;-69
2022/05/16 09:32:05;;;;;;;3.87;1.93;;;22.30;99.30;;;;;;5096757;28;20490;-69
2022/05/16 09:34:32;;;;;;;3.27;2.53;;;22.40;99.10;;;;;;5096257;28;20437;-69
2022/05/16 09:36:59;;;;;;;4.77;2.40;;;22.40;99.40;;;;;;5096482;28;20464;-69
2022/05/16 09:39:31;;;;;;;4.03;1.90;;;22.40;97.60;;;;;;5096715;28;20477;-69
2022/05/16 09:42:03;;;;;;;3.23;2.00;;;22.50;97.00;;;;;;5096421;28;20453;-70
2022/05/16 09:44:35;;;;;;;3.20;1.90;;;22.60;97.80;;;;;;5096550;28;20825;-70
2022/05/16 09:47:22;;;;;;;3.50;2.00;;;22.70;98.00;;;;;;5096415;28;20484;-70
2022/05/16 09:50:10;;;;;;;2.53;2.10;;;22.80;95.60;;;;;;5095954;28;20553;-69
2022/05/16 09:52:42;;;;;;;3.80;1.90;;;22.90;95.20;;;;;;5096039;28;20438;-70
2022/05/16 09:55:15;;;;;;;3.57;1.80;;;23.10;93.90;;;;;;5096581;28;20874;-70
2022/05/16 09:57:49;;;;;;;3.13;1.63;;;23.30;91.60;;;;;;5099387;28;20743;-70
2022/05/16 10:00:23;;;;;;;3.90;2.13;;;23.40;91.60;;;;;;5096518;28;20452;-70
2022/05/16 10:02:56;;;;;;;3.07;2.00;;;23.60;92.50;;;;;;5095770;28;20448;-70
2022/05/16 10:05:25;;;;;;;6.60;2.47;;;23.80;90.60;;;;;;5098445;28;20886;-69
2022/05/16 10:08:01;;;;;;;5.00;1.80;;;24.00;90.80;;;;;;5095717;28;20799;-69
2022/05/16 10:10:33;;;;;;;3.70;1.90;;;24.10;88.60;;;;;;5096290;28;20442;-69
2022/05/16 10:13:00;;;;;;;2.40;1.83;;;24.20;84.10;;;;;;5096120;28;20445;-70
2022/05/16 10:15:28;;;;;;;4.60;2.60;;;24.20;83.60;;;;;;5096118;28;20502;-68
2022/05/16 10:17:57;;;;;;;4.10;2.00;;;24.20;83.60;;;;;;5096107;28;20453;-70
2022/05/16 10:20:28;;;;;;;3.90;2.00;;;24.20;79.50;;;;;;5095856;28;20944;-70
2022/05/16 10:22:59;;;;;;;6.40;4.30;;;24.10;79.80;;;;;;5096327;28;20808;-69
2022/05/16 10:25:29;;;;;;;10.23;4.50;;;24.00;77.20;;;;;;5096784;28;20442;-70
2022/05/16 10:27:58;;;;;;;6.27;2.10;;;24.00;78.40;;;;;;5096351;28;20510;-70
2022/05/16 10:30:28;;;;;;;4.50;1.90;;;24.10;77.40;;;;;;5095592;28;20985;-69
2022/05/16 10:35:48;;;;;;;4.70;1.83;;;24.20;77.00;;;;;;5096690;28;20433;-70
2022/05/16 10:38:34;;;;;;;3.37;1.60;;;24.20;72.40;;;;;;5095389;28;20434;-70
2022/05/16 10:41:03;;;;;;;6.73;1.50;;;24.20;70.20;;;;;;5095626;28;20527;-70
2022/05/16 10:43:39;;;;;;;2.20;1.77;;;24.10;72.10;;;;;;5095597;28;20798;-70
2022/05/16 10:46:11;;;;;;;6.27;1.90;;;24.20;73.90;;;;;;5095827;28;20693;-70
2022/05/16 10:48:45;;;;;;;1.50;1.30;;;24.30;73.20;;;;;;5094960;28;20469;-70
2022/05/16 10:51:15;;;;;;;3.47;2.80;;;24.40;70.50;;;;;;5095265;28;20748;-69
2022/05/16 10:53:51;;;;;;;4.50;2.70;;;24.40;69.80;;;;;;5094861;28;20925;-71
2022/05/16 10:56:36;;;;;;;1.77;1.67;;;24.40;70.60;;;;;;5095420;28;20437;-69
2022/05/16 10:59:10;;;;;;;3.17;1.63;;;24.50;70.40;;;;;;5095350;28;20438;-70
2022/05/16 11:01:42;;;;;;;3.83;2.07;;;24.60;70.10;;;;;;5096331;28;20557;-70
2022/05/16 11:04:38;;;;;;;2.53;1.80;;;24.70;70.50;;;;;;5095461;28;20461;-70
2022/05/16 11:07:15;;;;;;;3.80;1.83;;;24.90;67.20;;;;;;5094409;28;20481;-70
2022/05/16 11:09:50;;;;;;;2.53;1.73;;;25.00;66.10;;;;;;5095199;28;20526;-70
2022/05/16 11:12:26;;;;;;;4.13;1.87;;;25.20;66.50;;;;;;5095161;28;20762;-70
2022/05/16 11:15:01;;;;;;;5.53;3.37;;;25.40;63.20;;;;;;5095264;28;20445;-70
2022/05/16 11:17:41;;;;;;;3.07;2.13;;;25.70;61.90;;;;;;5094850;28;20472;-71
2022/05/16 11:20:09;;;;;;;3.43;2.17;;;26.20;62.40;;;;;;5094909;28;20448;-69
2022/05/16 11:22:39;;;;;;;5.27;1.87;;;27.10;60.20;;;;;;5094796;28;20466;-69
2022/05/16 11:25:13;;;;;;;2.90;1.93;;;28.00;56.10;;;;;;5094633;28;20458;-69
2022/05/16 11:27:57;;;;;;;3.93;2.10;;;28.80;54.50;;;;;;5094437;28;20457;-70
2022/05/16 11:30:35;;;;;;;2.53;1.87;;;29.50;52.90;;;;;;5094249;28;20508;-70
2022/05/16 11:33:14;;;;;;;6.63;2.47;;;30.40;50.50;;;;;;5094238;28;20470;-70
2022/05/16 11:35:44;;;;;;;3.73;2.03;;;31.20;46.70;;;;;;5095522;28;20496;-70
2022/05/16 11:38:53;;;;;;;6.37;1.97;;;31.40;44.10;;;;;;5094284;28;20797;-71
2022/05/16 11:41:33;;;;;;;3.07;1.70;;;31.90;44.00;;;;;;5078425;28;20448;-71
2022/05/16 11:44:13;;;;;;;2.40;1.73;;;32.80;42.30;;;;;;5094602;28;20445;-71
2022/05/16 11:46:48;;;;;;;4.47;2.63;;;33.60;40.80;;;;;;5094362;28;20592;-71
2022/05/16 11:49:29;;;;;;;1.77;1.60;;;34.20;37.30;;;;;;5094373;28;20850;-70
2022/05/16 11:52:13;;;;;;;3.57;1.60;;;33.40;36.70;;;;;;5094544;28;20768;-70
2022/05/16 11:54:44;;;;;;;2.33;1.47;;;33.20;36.60;;;;;;5094518;28;20513;-70
2022/05/16 12:03:17;;;;;;;2.60;1.70;;;32.20;33.90;;;;;;5094819;28;20852;-72
2022/05/16 12:05:49;;;;;;;3.03;1.80;;;32.20;35.20;;;;;;5093864;28;20526;-72
2022/05/16 12:08:41;;;;;;;3.80;2.00;;;32.50;34.90;;;;;;5093982;28;20833;-71
2022/05/16 12:11:23;;;;;;;3.53;1.60;;;32.60;34.50;;;;;;5094209;28;20894;-71
2022/05/16 12:14:10;;;;;;;4.83;1.77;;;32.80;35.50;;;;;;5094023;28;20518;-71
2022/05/16 12:16:52;;;;;;;3.07;1.33;;;33.50;34.60;;;;;;5093779;28;20446;-71
2022/05/16 12:19:27;;;;;;;3.50;2.13;;;34.20;33.60;;;;;;5094248;28;20441;-71
2022/05/16 12:22:01;;;;;;;3.60;1.70;;;34.70;32.20;;;;;;5093566;28;20544;-71
2022/05/16 12:24:32;;;;;;;3.17;1.87;;;35.30;32.10;;;;;;5094684;28;20456;-71
2022/05/16 12:27:05;;;;;;;3.70;2.40;;;36.00;31.50;;;;;;5094140;28;20442;-71
2022/05/16 12:29:48;;;;;;;4.43;2.80;;;36.30;30.20;;;;;;5094233;28;20481;-71
2022/05/16 12:32:44;;;;;;;4.00;2.50;;;36.10;30.00;;;;;;5093851;28;20772;-72
2022/05/16 12:35:14;;;;;;;17.03;15.40;;;36.30;29.50;;;;;;5093751;28;20461;-71
2022/05/16 12:37:42;;;;;;;3.00;2.40;;;36.40;29.10;;;;;;5093739;28;20762;-71
2022/05/16 12:40:16;;;;;;;2.93;2.30;;;36.40;29.00;;;;;;5093946;28;20476;-71
2022/05/16 12:43:19;;;;;;;2.83;2.40;;;36.20;28.90;;;;;;5093784;28;20454;-71
2022/05/16 12:46:09;;;;;;;3.80;2.20;;;36.30;28.40;;;;;;5094169;28;20498;-71
2022/05/16 12:48:52;;;;;;;6.23;2.23;;;36.30;28.20;;;;;;5094221;28;20750;-71
2022/05/16 12:51:37;;;;;;;3.30;2.90;;;36.50;27.90;;;;;;5097867;28;20455;-72
2022/05/16 12:54:17;;;;;;;5.20;3.80;;;36.40;27.40;;;;;;5097449;28;20473;-71
2022/05/16 12:56:49;;;;;;;10.80;9.80;;;36.50;27.20;;;;;;5097778;28;20448;-70
2022/05/16 12:59:37;;;;;;;5.20;3.47;;;36.90;27.50;;;;;;5097624;28;20843;-71
2022/05/16 13:02:19;;;;;;;4.10;3.10;;;37.40;27.50;;;;;;5097380;28;20441;-70
2022/05/16 13:05:04;;;;;;;3.43;2.93;;;37.80;26.20;;;;;;5097634;28;20441;-70
2022/05/16 13:07:44;;;;;;;3.30;3.00;;;38.00;26.50;;;;;;5096983;28;20534;-71
2022/05/16 13:10:26;;;;;;;4.90;2.60;;;38.20;26.00;;;;;;5097100;28;20464;-70
2022/05/16 13:13:03;;;;;;;5.63;3.07;;;38.30;25.40;;;;;;5097896;28;20500;-74
2022/05/16 13:15:36;;;;;;;4.87;3.60;;;37.20;25.30;;;;;;5100188;28;20457;-74
2022/05/16 13:18:08;;;;;;;5.77;3.20;;;35.40;26.80;;;;;;5098068;28;20464;-74
2022/05/16 13:20:37;;;;;;;6.10;2.97;;;35.70;27.20;;;;;;5097021;28;20457;-75
2022/05/16 13:23:04;;;;;;;6.07;2.93;;;36.20;26.70;;;;;;5096720;28;20959;-75
2022/05/16 13:29:21;;;;;;;2.90;2.47;;;36.60;26.40;;;;;;5096775;28;20500;-73
2022/05/16 13:31:03;;;;;;;5.07;2.90;;;36.90;25.80;;;;;;5075809;28;20578;-74
2022/05/16 13:33:34;;;;;;;3.53;3.17;;;36.70;26.30;;;;;;5096501;28;20461;-74
2022/05/16 13:36:14;;;;;;;12.47;10.47;;;36.90;26.20;;;;;;5096577;28;20449;-74
2022/05/16 13:38:41;;;;;;;5.30;3.60;;;37.10;26.00;;;;;;5096933;28;20452;-74
2022/05/16 13:41:09;;;;;;;4.07;3.07;;;37.20;25.60;;;;;;5097239;28;20489;-73